Phillipsburg, Ohio
Current Conditions -  °F | °C
As of 12:56 PM on Wednesday 26 Nov 2014 (Local Time) from KDAY Reporting Station
Overcast Overcast  
Wind Chill: 27°   Ceiling: 1600
Heat Index: 32°   Visibility: 9mi
Dew Point: 25°   Wind: 5mph
Humidity: 75%   Direction: 320°NW
Pressure: 30.09"   Gusts: NA
Location:  39.9°N, 84.4°W
Report Text: KDAY 261756Z 32004KT 9SM BKN016 OVC026 00/M04 A3009 RMK AO2 SLP199 T00001039 10000 21017 58019
Loading
Personal Weather Stations






























Interactive Weather Map New forecast layout! Learn more

10-Day Weather Forecast

Advertisements
Track Severe Weather on mobile